Castile, NY

12:55 AM EDT on November 01, 2014 (GMT -0400)
Wellsville Municipal-Tarantine | Change Station
CLOSE
Current Station
Airport
Location: Wellsville,
Elevation: 2123 ft
Nearby Weather Stations

Elev 2123 ft 42.11 °N, 77.98 °W | Updated 23 minutes ago

Rain
Rain
37 °F
Feels Like 34 °F
N
4
Wind Variable Wind from North

Today
High -- | Low -- °F
--% Chance of Precip.
Yesterday
High -- | Low -- °F
Precip. -- in
7:45 AM 6:04 PM
Waxing Gibbous, 62% visible
Pressure 29.92 in
Visibility 10.0 miles
Clouds Scattered Clouds 700 ft
Overcast 4100 ft
Windchill 34 °F
Dew Point 35 °F
Humidity 93%
Rainfall 0.00 in
Snow Depth Not available.
UV 0 out of 12
Pollen .10 out of 12
Air Quality Not available.
Flu Activity Not available.
SPECI KELZ 010432Z AUTO 36003KT 10SM -RA SCT007 OVC041 03/02 A2992 RMK AO2 P0001 T00280017

More Conditions Fewer Conditions

Pressure 29.92 in
Visibility 10.0 miles
Clouds Scattered Clouds 700 ft
Overcast 4100 ft
Windchill 34 °F
Dew Point 35 °F
Humidity 93%
Rainfall 0.00 in
Snow Depth Not available.
UV 0 out of 12
Pollen .10 out of 12
Air Quality Not available.
Flu Activity Not available.
SPECI KELZ 010432Z AUTO 36003KT 10SM -RA SCT007 OVC041 03/02 A2992 RMK AO2 P0001 T00280017

More Conditions Fewer Conditions

10-Day Weather Forecast

Almanac

Astronomy

Nov. 01, 2014 Rise Set
Actual Time
Civil Twilight
Nautical Twilight
Astronomical Twilight
Moon
Length of Visible Light
Length of Day
Tomorrow will be .
, % of the Moon is Illuminated

Today's Extremes

State Highs State Lows

Community

WunderPhotos

Upload Photos

1,766,854 photos uploaded!

WunderBlogs® & News

Nearby

Air Quality

  Air Quality AQ Index Pollutant
Not available.

Snow Depth

Station Depth Elevation

Earthquake Activity

City Distance Mag. Time & Date
Minimum magnitude displayed is 2.5.

Coastal Water Temperatures

Place Temperature

Nearby Weather Stations